createdAt,value
2023-03-16T00:03:30.638Z,44.40
2023-03-16T00:08:38.384Z,48.10
2023-03-16T00:13:45.374Z,60.70
2023-03-16T00:18:52.464Z,48.70
2023-03-16T00:23:59.396Z,52.60
2023-03-16T00:29:06.334Z,54.90
2023-03-16T00:34:15.553Z,54.40
2023-03-16T00:39:22.900Z,43.80
2023-03-16T00:44:31.728Z,53.00
2023-03-16T00:49:39.000Z,52.20
2023-03-16T00:54:47.339Z,46.00
2023-03-16T00:59:54.162Z,52.50
2023-03-16T01:05:02.225Z,54.60
2023-03-16T01:10:11.027Z,44.20
2023-03-16T01:15:18.176Z,52.00
2023-03-16T01:20:26.531Z,52.40
2023-03-16T01:25:33.747Z,46.90
2023-03-16T01:30:41.220Z,48.60
2023-03-16T01:35:56.784Z,44.20
2023-03-16T01:41:05.884Z,49.00
2023-03-16T01:46:21.714Z,49.20
2023-03-16T01:51:36.450Z,44.60
2023-03-16T01:56:48.529Z,54.70
2023-03-16T02:01:56.483Z,53.30
2023-03-16T02:07:05.071Z,54.20
2023-03-16T02:12:18.077Z,42.80
2023-03-16T02:17:31.154Z,48.30
2023-03-16T02:22:45.174Z,39.80
2023-03-16T02:28:02.479Z,36.50
2023-03-16T02:33:11.280Z,41.80
2023-03-16T02:38:18.398Z,34.00
2023-03-16T02:43:34.245Z,44.00
2023-03-16T02:49:02.989Z,43.60
2023-03-16T02:54:10.161Z,43.60
2023-03-16T02:59:18.929Z,46.30
2023-03-16T03:04:26.216Z,44.20
2023-03-16T03:09:33.908Z,53.70
2023-03-16T03:14:41.556Z,38.60
2023-03-16T03:19:48.963Z,36.70
2023-03-16T03:24:56.469Z,38.50
2023-03-16T03:30:03.454Z,44.50
2023-03-16T03:35:12.576Z,42.80
2023-03-16T03:40:21.033Z,45.30
2023-03-16T03:45:32.107Z,37.30
2023-03-16T03:50:40.767Z,39.80
2023-03-16T03:56:12.983Z,38.80
2023-03-16T04:01:20.188Z,33.30
2023-03-16T04:06:27.238Z,34.60
2023-03-16T04:11:35.276Z,27.70
2023-03-16T04:16:44.428Z,36.10
2023-03-16T04:21:52.978Z,34.40
2023-03-16T04:27:00.835Z,32.70
2023-03-16T04:32:08.388Z,31.00
2023-03-16T04:37:15.628Z,43.90
2023-03-16T04:42:23.278Z,39.10
2023-03-16T04:47:33.884Z,27.90
2023-03-16T04:52:41.254Z,34.70
2023-03-16T04:57:52.542Z,52.70
2023-03-16T05:03:00.115Z,31.90
2023-03-16T05:08:07.997Z,33.80
2023-03-16T05:13:16.238Z,30.90
2023-03-16T05:18:25.354Z,32.60
2023-03-16T05:23:32.773Z,32.50
2023-03-16T05:28:43.582Z,32.80
2023-03-16T05:33:54.792Z,28.80
2023-03-16T05:39:02.509Z,27.20
2023-03-16T05:44:13.936Z,22.80
2023-03-16T05:49:44.066Z,25.20
2023-03-16T05:55:00.267Z,26.30
2023-03-16T06:00:14.759Z,26.30
2023-03-16T06:05:25.651Z,28.10
2023-03-16T06:10:33.552Z,36.90
2023-03-16T06:15:40.676Z,24.50
2023-03-16T06:20:48.238Z,26.20
2023-03-16T06:25:55.971Z,24.20
2023-03-16T06:31:05.331Z,30.90
2023-03-16T06:36:15.358Z,37.70
2023-03-16T06:41:26.492Z,34.10
2023-03-16T06:46:34.280Z,33.90
2023-03-16T06:51:42.994Z,25.00
2023-03-16T06:56:50.107Z,23.80
2023-03-16T07:01:57.037Z,23.70
2023-03-16T07:07:04.226Z,30.10
2023-03-16T07:12:11.971Z,23.90
2023-03-16T07:17:18.951Z,24.50
2023-03-16T07:22:25.997Z,28.10
2023-03-16T07:27:33.006Z,23.30
2023-03-16T07:32:42.828Z,20.50
2023-03-16T07:37:50.747Z,23.70
2023-03-16T07:42:59.078Z,26.00
2023-03-16T07:48:09.139Z,22.80
2023-03-16T07:53:30.347Z,28.20
2023-03-16T07:59:02.940Z,25.10
2023-03-16T08:04:12.300Z,16.90
2023-03-16T08:09:21.469Z,22.30
2023-03-16T08:14:28.685Z,18.50
2023-03-16T08:19:47.580Z,17.50
2023-03-16T08:24:55.325Z,13.20
2023-03-16T08:30:05.107Z,15.70
2023-03-16T08:35:17.016Z,11.50
2023-03-16T08:40:25.544Z,17.60
2023-03-16T08:45:33.430Z,16.80
2023-03-16T08:50:40.442Z,15.10
2023-03-16T08:55:47.364Z,13.70
2023-03-16T09:00:54.657Z,13.60
2023-03-16T09:06:06.995Z,11.60
2023-03-16T09:11:15.771Z,10.00
2023-03-16T09:16:25.900Z,10.20
2023-03-16T09:21:35.120Z,13.10
2023-03-16T09:26:42.780Z,12.70
2023-03-16T09:31:50.383Z,13.00
2023-03-16T09:36:57.263Z,16.90
2023-03-16T09:42:11.569Z,7.70
2023-03-16T09:47:25.671Z,8.30
2023-03-16T09:52:40.090Z,8.80
2023-03-16T09:57:48.748Z,12.40
2023-03-16T10:03:11.459Z,9.40
2023-03-16T10:08:24.300Z,13.80
2023-03-16T10:13:38.803Z,10.80
2023-03-16T10:18:48.001Z,8.50
2023-03-16T10:23:58.854Z,10.90
2023-03-16T10:29:10.776Z,8.60
2023-03-16T10:39:24.120Z,11.70
2023-03-16T10:44:32.208Z,6.50
2023-03-16T10:49:42.248Z,8.40
2023-03-16T10:54:55.720Z,8.40
2023-03-16T11:00:13.102Z,8.60
2023-03-16T11:05:31.331Z,5.50
2023-03-16T11:10:54.617Z,9.90
2023-03-16T11:16:07.761Z,6.80
2023-03-16T11:21:25.788Z,9.90
2023-03-16T11:26:37.641Z,8.00
2023-03-16T11:31:53.768Z,8.40
2023-03-16T11:37:14.999Z,7.90
2023-03-16T11:42:31.180Z,8.90
2023-03-16T11:47:57.748Z,7.70
2023-03-16T11:53:15.079Z,14.60
2023-03-16T11:58:38.649Z,7.10
2023-03-16T12:04:03.602Z,6.70
2023-03-16T12:09:48.418Z,8.30
2023-03-16T12:15:06.661Z,8.60
2023-03-16T12:20:20.230Z,5.10
2023-03-16T12:25:32.283Z,7.20
2023-03-16T12:30:51.659Z,8.40
2023-03-16T12:36:05.400Z,9.00
2023-03-16T12:41:24.953Z,11.30
2023-03-16T12:46:42.653Z,5.50
2023-03-16T12:52:00.136Z,5.40
2023-03-16T12:57:09.718Z,6.80
2023-03-16T13:02:22.326Z,11.10
2023-03-16T13:07:31.617Z,6.10
2023-03-16T13:12:41.929Z,5.80
2023-03-16T13:17:51.757Z,8.10
2023-03-16T13:23:22.136Z,4.10
2023-03-16T13:33:40.873Z,5.60
2023-03-16T13:38:58.666Z,6.40
2023-03-16T13:44:13.843Z,6.10
2023-03-16T13:49:21.103Z,5.00
2023-03-16T13:54:30.803Z,7.20
2023-03-16T13:59:38.135Z,6.50
2023-03-16T14:04:45.347Z,6.80
2023-03-16T14:09:52.511Z,5.40
2023-03-16T14:14:59.916Z,3.80
2023-03-16T14:20:11.744Z,2.90
2023-03-16T14:25:23.771Z,5.30
2023-03-16T14:30:31.668Z,4.60
2023-03-16T14:35:44.941Z,6.90
2023-03-16T14:40:58.403Z,8.50
2023-03-16T14:46:07.632Z,5.70
2023-03-16T14:51:16.540Z,10.10
2023-03-16T14:56:23.642Z,5.60
2023-03-16T15:01:31.412Z,6.20
2023-03-16T15:06:38.473Z,6.90
2023-03-16T15:11:46.572Z,5.80
2023-03-16T15:16:54.841Z,8.80
2023-03-16T15:22:04.175Z,6.80
2023-03-16T15:27:21.951Z,4.90
2023-03-16T15:32:29.305Z,6.60
2023-03-16T15:37:37.385Z,6.00
2023-03-16T15:42:46.872Z,6.90
2023-03-16T15:47:55.381Z,5.20
2023-03-16T15:53:07.073Z,5.90
2023-03-16T15:58:20.541Z,6.90
2023-03-16T16:03:28.623Z,6.70
2023-03-16T16:08:35.626Z,8.00
2023-03-16T16:13:45.148Z,6.80
2023-03-16T16:18:52.831Z,5.10
2023-03-16T16:24:03.395Z,5.30
2023-03-16T16:29:16.475Z,6.80
2023-03-16T16:34:25.874Z,9.50
2023-03-16T16:39:34.199Z,11.40
2023-03-16T16:44:42.452Z,23.10
2023-03-16T16:49:51.138Z,23.30
2023-03-16T16:54:58.209Z,27.30
2023-03-16T17:00:07.377Z,33.40
2023-03-16T17:05:20.892Z,36.50
2023-03-16T17:10:29.124Z,35.00
2023-03-16T17:15:37.013Z,28.30
2023-03-16T17:20:44.663Z,36.00
2023-03-16T17:25:52.187Z,28.10
2023-03-16T17:30:59.360Z,25.00
2023-03-16T17:36:06.874Z,28.10
2023-03-16T17:41:24.014Z,24.80
2023-03-16T17:46:33.195Z,21.50
2023-03-16T17:51:40.619Z,27.20
2023-03-16T17:56:48.853Z,27.60
2023-03-16T18:01:56.420Z,39.50
2023-03-16T18:07:03.765Z,41.20
2023-03-16T18:12:12.706Z,38.00
2023-03-16T18:17:31.095Z,35.40
2023-03-16T18:22:38.405Z,28.00
2023-03-16T18:27:45.499Z,41.60
2023-03-16T18:32:53.119Z,34.50
2023-03-16T18:38:00.272Z,36.30
2023-03-16T18:43:12.728Z,35.70
2023-03-16T18:48:27.240Z,40.20
2023-03-16T18:53:34.619Z,43.10
2023-03-16T18:58:42.356Z,46.10
2023-03-16T19:03:49.988Z,53.00
2023-03-16T19:08:59.226Z,68.20
2023-03-16T19:14:16.552Z,97.10
2023-03-16T19:19:24.897Z,91.00
2023-03-16T19:24:35.878Z,79.40
2023-03-16T19:29:43.124Z,90.80
2023-03-16T19:34:50.860Z,84.20
2023-03-16T19:40:00.547Z,67.40
2023-03-16T19:45:17.568Z,58.90
2023-03-16T19:50:26.585Z,59.10
2023-03-16T19:55:38.409Z,60.70
2023-03-16T20:00:46.543Z,72.80
2023-03-16T20:05:53.618Z,60.80
2023-03-16T20:11:03.563Z,66.60
2023-03-16T20:16:14.661Z,69.80
2023-03-16T20:21:22.010Z,81.00
2023-03-16T20:26:33.165Z,85.60
2023-03-16T20:31:40.142Z,79.00
2023-03-16T20:36:47.067Z,77.70
2023-03-16T20:41:54.516Z,74.90
2023-03-16T20:47:01.487Z,74.40
2023-03-16T20:52:17.584Z,80.10
2023-03-16T20:57:29.978Z,75.10
2023-03-16T21:02:38.642Z,91.60
2023-03-16T21:07:45.717Z,108.90
2023-03-16T21:12:55.411Z,108.40
2023-03-16T21:18:04.989Z,102.50
2023-03-16T21:23:17.709Z,102.20
2023-03-16T21:28:29.035Z,107.20
2023-03-16T21:33:37.825Z,119.50
2023-03-16T21:38:45.603Z,116.40
2023-03-16T21:43:54.621Z,125.10
2023-03-16T21:49:03.679Z,111.50
2023-03-16T21:54:15.891Z,121.10
2023-03-16T21:59:23.930Z,120.60
2023-03-16T22:04:34.237Z,124.70
2023-03-16T22:09:43.162Z,116.20
2023-03-16T22:14:50.898Z,120.00
2023-03-16T22:19:57.904Z,111.80
2023-03-16T22:25:13.855Z,119.00
2023-03-16T22:30:24.980Z,115.30
2023-03-16T22:35:36.655Z,117.10
2023-03-16T22:40:44.524Z,116.30
2023-03-16T22:45:54.825Z,121.70
2023-03-16T22:51:05.297Z,109.50
2023-03-16T22:56:12.481Z,111.50
2023-03-16T23:01:21.693Z,101.50
2023-03-16T23:06:31.505Z,84.80
2023-03-16T23:11:43.490Z,91.50
2023-03-16T23:16:52.094Z,85.40
2023-03-16T23:22:01.962Z,82.60
2023-03-16T23:27:15.702Z,83.70
2023-03-16T23:32:23.019Z,76.40
2023-03-16T23:37:30.023Z,84.00
2023-03-16T23:42:37.029Z,91.50
2023-03-16T23:47:44.182Z,91.90
2023-03-16T23:52:51.218Z,81.30
2023-03-16T23:57:58.343Z,85.80
